sensor_id;sensor_type;location;lat;lon;timestamp;pressure;altitude;pressure_sealevel;temperature;humidity
52957;BME280;38819;42.692;23.342;2023-05-20T00:00:44;95609.41;;;14.63;74.40
52957;BME280;38819;42.692;23.342;2023-05-20T00:03:12;95601.13;;;14.55;74.63
52957;BME280;38819;42.692;23.342;2023-05-20T00:05:37;95601.56;;;14.62;74.70
52957;BME280;38819;42.692;23.342;2023-05-20T00:08:03;95598.94;;;14.57;74.78
52957;BME280;38819;42.692;23.342;2023-05-20T00:10:31;95594.81;;;14.59;74.75
52957;BME280;38819;42.692;23.342;2023-05-20T00:12:57;95601.94;;;14.55;74.82
52957;BME280;38819;42.692;23.342;2023-05-20T00:15:22;95601.66;;;14.57;74.85
52957;BME280;38819;42.692;23.342;2023-05-20T00:17:48;95599.94;;;14.61;74.81
52957;BME280;38819;42.692;23.342;2023-05-20T00:20:13;95592.88;;;14.60;74.71
52957;BME280;38819;42.692;23.342;2023-05-20T00:22:39;95599.44;;;14.59;74.58
52957;BME280;38819;42.692;23.342;2023-05-20T00:25:04;95596.22;;;14.57;74.50
52957;BME280;38819;42.692;23.342;2023-05-20T00:27:30;95595.19;;;14.53;74.50
52957;BME280;38819;42.692;23.342;2023-05-20T00:29:55;95584.81;;;14.55;74.34
52957;BME280;38819;42.692;23.342;2023-05-20T00:32:21;95579.06;;;14.56;74.05
52957;BME280;38819;42.692;23.342;2023-05-20T00:34:55;95574.91;;;14.50;74.18
52957;BME280;38819;42.692;23.342;2023-05-20T00:37:21;95581.72;;;14.48;74.14
52957;BME280;38819;42.692;23.342;2023-05-20T00:39:46;95576.78;;;14.50;74.19
52957;BME280;38819;42.692;23.342;2023-05-20T00:42:24;95582.03;;;14.46;74.08
52957;BME280;38819;42.692;23.342;2023-05-20T00:44:51;95577.03;;;14.39;74.08
52957;BME280;38819;42.692;23.342;2023-05-20T00:47:19;95571.84;;;14.29;74.38
52957;BME280;38819;42.692;23.342;2023-05-20T00:49:45;95571.72;;;14.34;74.42
52957;BME280;38819;42.692;23.342;2023-05-20T00:52:11;95571.47;;;14.22;75.06
52957;BME280;38819;42.692;23.342;2023-05-20T00:54:39;95567.88;;;14.13;75.65
52957;BME280;38819;42.692;23.342;2023-05-20T00:57:06;95568.25;;;14.20;75.20
52957;BME280;38819;42.692;23.342;2023-05-20T00:59:35;95556.56;;;14.19;75.15
52957;BME280;38819;42.692;23.342;2023-05-20T01:02:02;95575.91;;;14.18;75.17
52957;BME280;38819;42.692;23.342;2023-05-20T01:04:29;95571.72;;;14.12;75.55
52957;BME280;38819;42.692;23.342;2023-05-20T01:06:55;95571.06;;;14.15;75.15
52957;BME280;38819;42.692;23.342;2023-05-20T01:09:22;95567.69;;;14.09;75.28
52957;BME280;38819;42.692;23.342;2023-05-20T01:14:26;95576.34;;;13.97;75.95
52957;BME280;38819;42.692;23.342;2023-05-20T01:16:54;95572.22;;;14.00;75.95
52957;BME280;38819;42.692;23.342;2023-05-20T01:19:38;95571.84;;;13.93;75.85
52957;BME280;38819;42.692;23.342;2023-05-20T01:22:06;95575.03;;;13.95;75.79
52957;BME280;38819;42.692;23.342;2023-05-20T01:24:38;95570.25;;;13.92;75.83
52957;BME280;38819;42.692;23.342;2023-05-20T01:27:03;95571.22;;;13.96;75.68
52957;BME280;38819;42.692;23.342;2023-05-20T01:29:29;95572.53;;;13.98;75.42
52957;BME280;38819;42.692;23.342;2023-05-20T01:31:58;95572.84;;;13.97;75.34
52957;BME280;38819;42.692;23.342;2023-05-20T01:34:25;95567.94;;;13.85;75.74
52957;BME280;38819;42.692;23.342;2023-05-20T01:36:52;95572.47;;;13.76;76.24
52957;BME280;38819;42.692;23.342;2023-05-20T01:39:19;95579.94;;;13.70;76.52
52957;BME280;38819;42.692;23.342;2023-05-20T01:41:45;95573.56;;;13.75;76.34
52957;BME280;38819;42.692;23.342;2023-05-20T01:44:11;95581.44;;;13.62;76.91
52957;BME280;38819;42.692;23.342;2023-05-20T01:46:36;95579.72;;;13.52;77.02
52957;BME280;38819;42.692;23.342;2023-05-20T01:49:02;95575.91;;;13.53;77.15
52957;BME280;38819;42.692;23.342;2023-05-20T01:51:27;95569.19;;;13.65;76.71
52957;BME280;38819;42.692;23.342;2023-05-20T01:53:54;95561.84;;;13.65;76.20
52957;BME280;38819;42.692;23.342;2023-05-20T01:56:20;95565.44;;;13.61;76.21
52957;BME280;38819;42.692;23.342;2023-05-20T01:58:46;95564.06;;;13.63;76.38
52957;BME280;38819;42.692;23.342;2023-05-20T02:01:11;95573.28;;;13.62;76.56
52957;BME280;38819;42.692;23.342;2023-05-20T02:03:37;95569.59;;;13.58;76.37
52957;BME280;38819;42.692;23.342;2023-05-20T02:06:02;95573.09;;;13.59;76.32
52957;BME280;38819;42.692;23.342;2023-05-20T02:08:27;95552.38;;;13.63;75.90
52957;BME280;38819;42.692;23.342;2023-05-20T02:10:53;95548.38;;;13.60;75.44
52957;BME280;38819;42.692;23.342;2023-05-20T02:13:18;95556.41;;;13.65;75.34
52957;BME280;38819;42.692;23.342;2023-05-20T02:15:44;95564.75;;;13.55;75.61
52957;BME280;38819;42.692;23.342;2023-05-20T02:18:09;95566.66;;;13.55;75.97
52957;BME280;38819;42.692;23.342;2023-05-20T02:20:36;95562.44;;;13.48;76.41
52957;BME280;38819;42.692;23.342;2023-05-20T02:23:02;95558.50;;;13.55;76.02
52957;BME280;38819;42.692;23.342;2023-05-20T02:25:30;95557.22;;;13.52;76.15
52957;BME280;38819;42.692;23.342;2023-05-20T02:27:56;95558.13;;;13.47;76.04
52957;BME280;38819;42.692;23.342;2023-05-20T02:30:21;95547.16;;;13.52;75.68
52957;BME280;38819;42.692;23.342;2023-05-20T02:32:47;95550.66;;;13.53;75.50
52957;BME280;38819;42.692;23.342;2023-05-20T02:35:12;95554.50;;;13.52;75.68
52957;BME280;38819;42.692;23.342;2023-05-20T02:37:37;95551.72;;;13.43;75.63
52957;BME280;38819;42.692;23.342;2023-05-20T02:40:04;95556.19;;;13.48;75.75
52957;BME280;38819;42.692;23.342;2023-05-20T02:42:30;95547.38;;;13.42;75.40
52957;BME280;38819;42.692;23.342;2023-05-20T02:44:56;95550.19;;;13.51;75.07
52957;BME280;38819;42.692;23.342;2023-05-20T02:47:24;95547.88;;;13.44;75.09
52957;BME280;38819;42.692;23.342;2023-05-20T02:49:49;95560.34;;;13.45;75.13
52957;BME280;38819;42.692;23.342;2023-05-20T02:52:14;95554.19;;;13.40;74.95
52957;BME280;38819;42.692;23.342;2023-05-20T02:54:40;95553.91;;;13.41;75.05
52957;BME280;38819;42.692;23.342;2023-05-20T02:57:06;95552.59;;;13.39;75.08
52957;BME280;38819;42.692;23.342;2023-05-20T02:59:31;95548.28;;;13.38;74.96
52957;BME280;38819;42.692;23.342;2023-05-20T03:01:56;95550.88;;;13.43;75.20
52957;BME280;38819;42.692;23.342;2023-05-20T03:04:22;95558.59;;;13.22;75.63
52957;BME280;38819;42.692;23.342;2023-05-20T03:06:49;95564.13;;;13.16;76.07
52957;BME280;38819;42.692;23.342;2023-05-20T03:09:16;95566.63;;;13.13;76.37
52957;BME280;38819;42.692;23.342;2023-05-20T03:11:43;95569.66;;;13.25;76.41
52957;BME280;38819;42.692;23.342;2023-05-20T03:14:09;95578.97;;;13.19;76.13
52957;BME280;38819;42.692;23.342;2023-05-20T03:16:34;95575.47;;;13.19;76.23
52957;BME280;38819;42.692;23.342;2023-05-20T03:19:00;95575.88;;;13.26;76.20
52957;BME280;38819;42.692;23.342;2023-05-20T03:21:25;95586.63;;;13.31;75.77
52957;BME280;38819;42.692;23.342;2023-05-20T03:23:52;95579.53;;;13.35;75.61
52957;BME280;38819;42.692;23.342;2023-05-20T03:26:17;95586.16;;;13.43;75.55
52957;BME280;38819;42.692;23.342;2023-05-20T03:28:43;95580.31;;;13.49;75.67
52957;BME280;38819;42.692;23.342;2023-05-20T03:31:08;95579.50;;;13.63;75.20
52957;BME280;38819;42.692;23.342;2023-05-20T03:33:34;95573.38;;;13.71;74.66
52957;BME280;38819;42.692;23.342;2023-05-20T03:35:59;95580.22;;;13.68;74.73
52957;BME280;38819;42.692;23.342;2023-05-20T03:38:26;95590.38;;;13.77;74.45
52957;BME280;38819;42.692;23.342;2023-05-20T03:40:51;95591.06;;;13.82;74.30
52957;BME280;38819;42.692;23.342;2023-05-20T03:43:17;95583.81;;;13.92;74.04
52957;BME280;38819;42.692;23.342;2023-05-20T03:45:42;95580.88;;;13.88;74.24
52957;BME280;38819;42.692;23.342;2023-05-20T03:48:07;95584.44;;;13.88;73.84
52957;BME280;38819;42.692;23.342;2023-05-20T03:50:33;95580.28;;;13.91;73.70
52957;BME280;38819;42.692;23.342;2023-05-20T03:52:58;95588.03;;;13.84;74.00
52957;BME280;38819;42.692;23.342;2023-05-20T03:55:24;95597.69;;;13.90;74.24
52957;BME280;38819;42.692;23.342;2023-05-20T03:57:50;95601.91;;;13.96;74.27
52957;BME280;38819;42.692;23.342;2023-05-20T04:00:15;95590.53;;;13.94;74.42
52957;BME280;38819;42.692;23.342;2023-05-20T04:02:41;95599.06;;;14.01;74.73
52957;BME280;38819;42.692;23.342;2023-05-20T04:05:07;95597.28;;;13.97;74.64
52957;BME280;38819;42.692;23.342;2023-05-20T04:07:34;95608.84;;;14.02;74.46
52957;BME280;38819;42.692;23.342;2023-05-20T04:10:00;95609.03;;;14.06;74.49
52957;BME280;38819;42.692;23.342;2023-05-20T04:12:25;95606.38;;;14.15;73.94
52957;BME280;38819;42.692;23.342;2023-05-20T04:14:58;95612.63;;;14.15;74.04
52957;BME280;38819;42.692;23.342;2023-05-20T04:17:28;95609.41;;;14.13;74.25
52957;BME280;38819;42.692;23.342;2023-05-20T04:19:56;95606.19;;;14.11;74.10
52957;BME280;38819;42.692;23.342;2023-05-20T04:22:24;95610.19;;;14.27;74.01
52957;BME280;38819;42.692;23.342;2023-05-20T04:24:49;95604.81;;;14.36;73.89
52957;BME280;38819;42.692;23.342;2023-05-20T04:27:15;95600.22;;;14.37;73.45
52957;BME280;38819;42.692;23.342;2023-05-20T04:29:41;95604.03;;;14.36;73.74
52957;BME280;38819;42.692;23.342;2023-05-20T04:32:19;95604.91;;;14.45;73.57
52957;BME280;38819;42.692;23.342;2023-05-20T04:34:45;95608.50;;;14.54;73.21
52957;BME280;38819;42.692;23.342;2023-05-20T04:37:11;95613.81;;;14.59;73.26
52957;BME280;38819;42.692;23.342;2023-05-20T04:39:37;95610.00;;;14.60;72.91
52957;BME280;38819;42.692;23.342;2023-05-20T04:42:03;95620.47;;;14.67;72.24
52957;BME280;38819;42.692;23.342;2023-05-20T04:44:29;95618.09;;;14.74;72.11
52957;BME280;38819;42.692;23.342;2023-05-20T04:46:55;95628.97;;;14.74;72.79
52957;BME280;38819;42.692;23.342;2023-05-20T04:49:22;95615.88;;;14.76;72.87
52957;BME280;38819;42.692;23.342;2023-05-20T04:51:50;95612.59;;;14.88;72.41
52957;BME280;38819;42.692;23.342;2023-05-20T04:54:16;95621.44;;;14.94;72.08
52957;BME280;38819;42.692;23.342;2023-05-20T04:56:44;95627.06;;;14.97;71.95
52957;BME280;38819;42.692;23.342;2023-05-20T04:59:11;95612.66;;;14.97;72.50
52957;BME280;38819;42.692;23.342;2023-05-20T05:01:36;95620.69;;;15.02;72.58
52957;BME280;38819;42.692;23.342;2023-05-20T05:04:01;95621.22;;;15.13;72.19
52957;BME280;38819;42.692;23.342;2023-05-20T05:06:27;95614.59;;;15.28;71.31
52957;BME280;38819;42.692;23.342;2023-05-20T05:08:53;95612.84;;;15.32;70.63
52957;BME280;38819;42.692;23.342;2023-05-20T05:11:18;95623.41;;;15.33;70.73
52957;BME280;38819;42.692;23.342;2023-05-20T05:13:44;95625.03;;;15.34;69.31
52957;BME280;38819;42.692;23.342;2023-05-20T05:16:09;95622.66;;;15.42;69.71
52957;BME280;38819;42.692;23.342;2023-05-20T05:18:35;95611.63;;;15.47;69.68
52957;BME280;38819;42.692;23.342;2023-05-20T05:21:05;95620.19;;;15.63;68.74
52957;BME280;38819;42.692;23.342;2023-05-20T05:23:31;95621.03;;;15.72;67.92
52957;BME280;38819;42.692;23.342;2023-05-20T05:25:57;95619.78;;;15.78;67.34
52957;BME280;38819;42.692;23.342;2023-05-20T05:28:23;95609.56;;;15.84;67.27
52957;BME280;38819;42.692;23.342;2023-05-20T05:30:49;95611.31;;;15.88;66.90
52957;BME280;38819;42.692;23.342;2023-05-20T05:33:15;95605.72;;;15.93;66.62
52957;BME280;38819;42.692;23.342;2023-05-20T05:35:41;95604.94;;;16.02;66.63
52957;BME280;38819;42.692;23.342;2023-05-20T05:38:07;95603.97;;;16.06;66.42
52957;BME280;38819;42.692;23.342;2023-05-20T05:40:33;95607.50;;;16.07;66.68
52957;BME280;38819;42.692;23.342;2023-05-20T05:42:58;95608.94;;;16.04;66.58
52957;BME280;38819;42.692;23.342;2023-05-20T05:45:24;95597.91;;;16.18;66.10
52957;BME280;38819;42.692;23.342;2023-05-20T05:47:49;95600.94;;;16.25;65.69
52957;BME280;38819;42.692;23.342;2023-05-20T05:50:15;95613.47;;;16.26;66.03
52957;BME280;38819;42.692;23.342;2023-05-20T05:52:40;95610.28;;;16.33;65.88
52957;BME280;38819;42.692;23.342;2023-05-20T05:55:07;95611.72;;;16.39;65.13
52957;BME280;38819;42.692;23.342;2023-05-20T05:57:32;95608.84;;;16.44;64.87
52957;BME280;38819;42.692;23.342;2023-05-20T05:59:58;95607.38;;;16.38;64.77
52957;BME280;38819;42.692;23.342;2023-05-20T06:02:23;95604.50;;;16.26;64.53
52957;BME280;38819;42.692;23.342;2023-05-20T06:04:49;95599.53;;;16.28;64.53
52957;BME280;38819;42.692;23.342;2023-05-20T06:07:14;95594.72;;;16.42;64.44
52957;BME280;38819;42.692;23.342;2023-05-20T06:09:40;95585.59;;;16.56;63.80
52957;BME280;38819;42.692;23.342;2023-05-20T06:12:05;95597.09;;;16.70;63.42
52957;BME280;38819;42.692;23.342;2023-05-20T06:14:31;95587.81;;;16.71;63.78
52957;BME280;38819;42.692;23.342;2023-05-20T06:16:57;95590.84;;;16.78;63.57
52957;BME280;38819;42.692;23.342;2023-05-20T06:19:22;95582.66;;;16.87;63.52
52957;BME280;38819;42.692;23.342;2023-05-20T06:21:47;95585.56;;;16.99;63.11
52957;BME280;38819;42.692;23.342;2023-05-20T06:24:13;95593.06;;;17.11;62.39
52957;BME280;38819;42.692;23.342;2023-05-20T06:26:38;95589.69;;;17.14;62.58
52957;BME280;38819;42.692;23.342;2023-05-20T06:29:04;95587.13;;;17.18;62.04
52957;BME280;38819;42.692;23.342;2023-05-20T06:31:29;95585.16;;;17.27;61.86
52957;BME280;38819;42.692;23.342;2023-05-20T06:33:55;95587.91;;;17.18;61.50
52957;BME280;38819;42.692;23.342;2023-05-20T06:36:20;95589.66;;;17.23;61.33
52957;BME280;38819;42.692;23.342;2023-05-20T06:38:46;95581.69;;;17.09;61.53
52957;BME280;38819;42.692;23.342;2023-05-20T06:41:11;95567.81;;;17.23;61.10
52957;BME280;38819;42.692;23.342;2023-05-20T06:43:37;95574.22;;;17.36;61.07
52957;BME280;38819;42.692;23.342;2023-05-20T06:46:03;95558.25;;;17.47;60.67
52957;BME280;38819;42.692;23.342;2023-05-20T06:48:28;95561.34;;;17.36;59.31
52957;BME280;38819;42.692;23.342;2023-05-20T06:50:54;95559.88;;;17.39;60.30
52957;BME280;38819;42.692;23.342;2023-05-20T06:53:21;95561.50;;;17.40;60.36
52957;BME280;38819;42.692;23.342;2023-05-20T06:55:46;95564.97;;;17.58;60.07
52957;BME280;38819;42.692;23.342;2023-05-20T06:58:11;95558.97;;;17.65;60.20
52957;BME280;38819;42.692;23.342;2023-05-20T07:00:37;95563.47;;;17.69;59.54
52957;BME280;38819;42.692;23.342;2023-05-20T07:03:03;95560.34;;;17.80;59.33
52957;BME280;38819;42.692;23.342;2023-05-20T07:05:28;95562.88;;;17.85;58.78
52957;BME280;38819;42.692;23.342;2023-05-20T07:07:55;95564.66;;;17.89;58.18
52957;BME280;38819;42.692;23.342;2023-05-20T07:10:21;95560.25;;;17.97;57.97
52957;BME280;38819;42.692;23.342;2023-05-20T07:12:46;95562.53;;;17.95;57.29
52957;BME280;38819;42.692;23.342;2023-05-20T07:15:12;95560.59;;;17.95;57.67
52957;BME280;38819;42.692;23.342;2023-05-20T07:17:37;95556.59;;;17.93;57.20
52957;BME280;38819;42.692;23.342;2023-05-20T07:20:03;95552.19;;;18.01;57.45
52957;BME280;38819;42.692;23.342;2023-05-20T07:22:28;95554.88;;;18.09;57.90
52957;BME280;38819;42.692;23.342;2023-05-20T07:24:54;95548.06;;;18.15;57.93
52957;BME280;38819;42.692;23.342;2023-05-20T07:27:20;95553.50;;;18.24;57.21
52957;BME280;38819;42.692;23.342;2023-05-20T07:29:45;95544.56;;;18.36;56.97
52957;BME280;38819;42.692;23.342;2023-05-20T07:32:10;95540.25;;;18.47;56.72
52957;BME280;38819;42.692;23.342;2023-05-20T07:34:36;95545.69;;;18.56;55.56
52957;BME280;38819;42.692;23.342;2023-05-20T07:37:02;95544.28;;;18.50;54.49
52957;BME280;38819;42.692;23.342;2023-05-20T07:39:28;95546.94;;;18.59;54.19
52957;BME280;38819;42.692;23.342;2023-05-20T07:41:53;95547.88;;;18.63;54.54
52957;BME280;38819;42.692;23.342;2023-05-20T07:44:19;95556.41;;;18.61;53.91
52957;BME280;38819;42.692;23.342;2023-05-20T07:46:46;95549.00;;;18.62;53.30
52957;BME280;38819;42.692;23.342;2023-05-20T07:49:12;95545.38;;;18.70;53.98
52957;BME280;38819;42.692;23.342;2023-05-20T07:51:38;95548.22;;;18.74;54.79
52957;BME280;38819;42.692;23.342;2023-05-20T07:54:03;95552.09;;;18.73;52.70
52957;BME280;38819;42.692;23.342;2023-05-20T07:56:28;95544.63;;;18.82;52.98
52957;BME280;38819;42.692;23.342;2023-05-20T07:58:56;95547.63;;;18.89;53.46
52957;BME280;38819;42.692;23.342;2023-05-20T08:01:26;95548.56;;;18.93;52.36
52957;BME280;38819;42.692;23.342;2023-05-20T08:03:51;95542.38;;;18.84;52.88
52957;BME280;38819;42.692;23.342;2023-05-20T08:06:17;95551.41;;;18.84;52.71
52957;BME280;38819;42.692;23.342;2023-05-20T08:08:45;95545.00;;;18.93;52.79
52957;BME280;38819;42.692;23.342;2023-05-20T08:11:10;95547.91;;;18.96;53.14
52957;BME280;38819;42.692;23.342;2023-05-20T08:13:36;95538.41;;;18.94;53.41
52957;BME280;38819;42.692;23.342;2023-05-20T08:16:01;95534.06;;;18.93;52.85
52957;BME280;38819;42.692;23.342;2023-05-20T08:18:31;95539.28;;;18.85;52.65
52957;BME280;38819;42.692;23.342;2023-05-20T08:20:57;95533.66;;;18.82;52.69
52957;BME280;38819;42.692;23.342;2023-05-20T08:23:23;95541.03;;;18.90;53.73
52957;BME280;38819;42.692;23.342;2023-05-20T08:25:49;95544.09;;;18.88;52.84
52957;BME280;38819;42.692;23.342;2023-05-20T08:28:14;95531.53;;;18.87;53.81
52957;BME280;38819;42.692;23.342;2023-05-20T08:30:40;95536.94;;;18.96;53.52
52957;BME280;38819;42.692;23.342;2023-05-20T08:33:06;95536.69;;;18.89;53.25
52957;BME280;38819;42.692;23.342;2023-05-20T08:35:31;95546.94;;;18.92;53.49
52957;BME280;38819;42.692;23.342;2023-05-20T08:37:57;95534.44;;;18.91;53.44
52957;BME280;38819;42.692;23.342;2023-05-20T08:40:23;95530.19;;;18.94;53.40
52957;BME280;38819;42.692;23.342;2023-05-20T08:42:50;95540.81;;;18.95;53.23
52957;BME280;38819;42.692;23.342;2023-05-20T08:45:20;95529.53;;;18.97;52.77
52957;BME280;38819;42.692;23.342;2023-05-20T08:47:50;95526.69;;;19.05;53.13
52957;BME280;38819;42.692;23.342;2023-05-20T08:50:16;95534.47;;;19.16;53.76
52957;BME280;38819;42.692;23.342;2023-05-20T08:52:44;95531.72;;;19.16;53.66
52957;BME280;38819;42.692;23.342;2023-05-20T08:55:24;95538.69;;;19.13;54.43
52957;BME280;38819;42.692;23.342;2023-05-20T08:57:51;95541.31;;;19.10;53.90
52957;BME280;38819;42.692;23.342;2023-05-20T09:00:19;95533.56;;;19.24;53.92
52957;BME280;38819;42.692;23.342;2023-05-20T09:02:46;95529.69;;;19.25;53.81
52957;BME280;38819;42.692;23.342;2023-05-20T09:05:12;95529.47;;;19.30;53.42
52957;BME280;38819;42.692;23.342;2023-05-20T09:07:37;95524.56;;;19.36;53.08
52957;BME280;38819;42.692;23.342;2023-05-20T09:10:04;95521.81;;;19.36;52.81
52957;BME280;38819;42.692;23.342;2023-05-20T09:12:30;95525.03;;;19.38;52.92
52957;BME280;38819;42.692;23.342;2023-05-20T09:14:56;95514.88;;;19.38;53.22
52957;BME280;38819;42.692;23.342;2023-05-20T09:17:22;95510.06;;;19.48;53.66
52957;BME280;38819;42.692;23.342;2023-05-20T09:19:52;95509.50;;;19.42;53.32
52957;BME280;38819;42.692;23.342;2023-05-20T09:22:27;95493.63;;;19.35;52.79
52957;BME280;38819;42.692;23.342;2023-05-20T09:24:53;95500.94;;;19.31;53.23
52957;BME280;38819;42.692;23.342;2023-05-20T09:27:20;95500.13;;;19.31;53.35
52957;BME280;38819;42.692;23.342;2023-05-20T09:29:48;95505.03;;;19.37;53.32
52957;BME280;38819;42.692;23.342;2023-05-20T09:32:15;95502.19;;;19.34;52.80
52957;BME280;38819;42.692;23.342;2023-05-20T09:34:41;95498.09;;;19.40;54.23
52957;BME280;38819;42.692;23.342;2023-05-20T09:37:08;95493.84;;;19.42;53.06
52957;BME280;38819;42.692;23.342;2023-05-20T09:42:26;95498.31;;;19.47;52.28
52957;BME280;38819;42.692;23.342;2023-05-20T09:44:53;95489.28;;;19.59;52.54
52957;BME280;38819;42.692;23.342;2023-05-20T09:47:19;95488.03;;;19.69;52.87
52957;BME280;38819;42.692;23.342;2023-05-20T09:49:45;95482.44;;;19.77;52.27
52957;BME280;38819;42.692;23.342;2023-05-20T09:52:17;95476.81;;;19.86;52.00
52957;BME280;38819;42.692;23.342;2023-05-20T09:54:43;95455.28;;;19.85;51.59
52957;BME280;38819;42.692;23.342;2023-05-20T09:57:09;95477.81;;;20.06;52.09
52957;BME280;38819;42.692;23.342;2023-05-20T09:59:36;95475.78;;;20.03;50.36
52957;BME280;38819;42.692;23.342;2023-05-20T10:02:02;95474.72;;;20.08;49.96
52957;BME280;38819;42.692;23.342;2023-05-20T10:04:29;95470.84;;;20.09;50.64
52957;BME280;38819;42.692;23.342;2023-05-20T10:07:12;95468.78;;;20.18;50.88
52957;BME280;38819;42.692;23.342;2023-05-20T10:17:24;95450.03;;;20.20;48.90
52957;BME280;38819;42.692;23.342;2023-05-20T10:19:59;95437.53;;;20.23;48.74
52957;BME280;38819;42.692;23.342;2023-05-20T10:22:26;95445.84;;;20.26;46.50
52957;BME280;38819;42.692;23.342;2023-05-20T10:25:03;95435.00;;;20.30;46.83
52957;BME280;38819;42.692;23.342;2023-05-20T10:27:41;95438.28;;;20.35;47.81
52957;BME280;38819;42.692;23.342;2023-05-20T10:30:14;95437.69;;;20.42;47.58
52957;BME280;38819;42.692;23.342;2023-05-20T10:32:48;95440.63;;;20.49;47.04
52957;BME280;38819;42.692;23.342;2023-05-20T10:35:20;95430.47;;;20.50;47.63
52957;BME280;38819;42.692;23.342;2023-05-20T10:37:46;95431.44;;;20.58;47.66
52957;BME280;38819;42.692;23.342;2023-05-20T10:40:13;95428.78;;;20.61;46.81
52957;BME280;38819;42.692;23.342;2023-05-20T10:42:40;95426.28;;;20.56;46.11
52957;BME280;38819;42.692;23.342;2023-05-20T10:45:06;95436.13;;;20.57;45.78
52957;BME280;38819;42.692;23.342;2023-05-20T10:47:32;95408.69;;;20.57;45.84
52957;BME280;38819;42.692;23.342;2023-05-20T10:49:58;95399.41;;;20.62;45.76
52957;BME280;38819;42.692;23.342;2023-05-20T10:52:26;95403.16;;;20.69;45.97
52957;BME280;38819;42.692;23.342;2023-05-20T10:54:58;95407.75;;;20.81;45.64
52957;BME280;38819;42.692;23.342;2023-05-20T10:57:26;95398.38;;;20.82;46.02
52957;BME280;38819;42.692;23.342;2023-05-20T10:59:52;95400.78;;;20.84;45.58
52957;BME280;38819;42.692;23.342;2023-05-20T11:02:18;95395.72;;;20.86;46.14
52957;BME280;38819;42.692;23.342;2023-05-20T11:04:47;95397.31;;;20.87;46.26
52957;BME280;38819;42.692;23.342;2023-05-20T11:07:26;95389.34;;;20.82;45.63
52957;BME280;38819;42.692;23.342;2023-05-20T11:09:53;95385.63;;;20.74;44.63
52957;BME280;38819;42.692;23.342;2023-05-20T11:12:20;95387.63;;;20.61;45.38
52957;BME280;38819;42.692;23.342;2023-05-20T11:14:47;95397.56;;;20.66;46.61
52957;BME280;38819;42.692;23.342;2023-05-20T11:17:13;95392.13;;;20.53;47.14
52957;BME280;38819;42.692;23.342;2023-05-20T11:19:38;95391.94;;;20.46;48.13
52957;BME280;38819;42.692;23.342;2023-05-20T11:22:06;95384.88;;;20.45;47.68
52957;BME280;38819;42.692;23.342;2023-05-20T11:24:32;95366.19;;;20.35;47.04
52957;BME280;38819;42.692;23.342;2023-05-20T11:26:59;95377.59;;;20.53;46.98
52957;BME280;38819;42.692;23.342;2023-05-20T11:29:25;95366.69;;;20.69;47.05
52957;BME280;38819;42.692;23.342;2023-05-20T11:31:51;95355.25;;;20.67;46.41
52957;BME280;38819;42.692;23.342;2023-05-20T11:34:20;95370.56;;;20.68;45.13
52957;BME280;38819;42.692;23.342;2023-05-20T11:36:47;95354.94;;;20.56;45.39
52957;BME280;38819;42.692;23.342;2023-05-20T11:39:14;95355.66;;;20.53;45.87
52957;BME280;38819;42.692;23.342;2023-05-20T11:41:43;95354.16;;;20.55;47.10
52957;BME280;38819;42.692;23.342;2023-05-20T11:44:09;95347.53;;;20.57;47.19
52957;BME280;38819;42.692;23.342;2023-05-20T11:46:40;95368.56;;;20.65;47.71
52957;BME280;38819;42.692;23.342;2023-05-20T11:49:06;95359.03;;;20.62;47.53
52957;BME280;38819;42.692;23.342;2023-05-20T11:51:32;95357.69;;;20.56;46.84
52957;BME280;38819;42.692;23.342;2023-05-20T11:53:59;95347.41;;;20.53;47.24
52957;BME280;38819;42.692;23.342;2023-05-20T11:56:27;95352.88;;;20.65;46.64
52957;BME280;38819;42.692;23.342;2023-05-20T11:58:52;95342.84;;;20.73;47.23
52957;BME280;38819;42.692;23.342;2023-05-20T12:01:18;95353.31;;;20.83;47.23
52957;BME280;38819;42.692;23.342;2023-05-20T12:03:43;95335.50;;;20.93;47.30
52957;BME280;38819;42.692;23.342;2023-05-20T12:06:10;95337.59;;;21.00;47.12
52957;BME280;38819;42.692;23.342;2023-05-20T12:08:36;95340.72;;;20.98;45.77
52957;BME280;38819;42.692;23.342;2023-05-20T12:11:02;95325.91;;;21.03;46.67
52957;BME280;38819;42.692;23.342;2023-05-20T12:13:28;95324.69;;;21.00;46.84
52957;BME280;38819;42.692;23.342;2023-05-20T12:15:53;95319.28;;;21.04;46.86
52957;BME280;38819;42.692;23.342;2023-05-20T12:18:18;95318.91;;;21.05;47.53
52957;BME280;38819;42.692;23.342;2023-05-20T12:20:44;95320.69;;;20.98;47.48
52957;BME280;38819;42.692;23.342;2023-05-20T12:23:09;95332.66;;;20.89;46.25
52957;BME280;38819;42.692;23.342;2023-05-20T12:25:35;95331.97;;;20.77;46.91
52957;BME280;38819;42.692;23.342;2023-05-20T12:28:01;95333.47;;;20.74;47.13
52957;BME280;38819;42.692;23.342;2023-05-20T12:30:26;95341.34;;;20.76;45.60
52957;BME280;38819;42.692;23.342;2023-05-20T12:32:52;95346.94;;;20.63;44.44
52957;BME280;38819;42.692;23.342;2023-05-20T12:35:40;95379.47;;;20.49;45.43
52957;BME280;38819;42.692;23.342;2023-05-20T12:38:06;95365.94;;;20.40;47.73
52957;BME280;38819;42.692;23.342;2023-05-20T12:40:32;95374.16;;;20.40;48.54
52957;BME280;38819;42.692;23.342;2023-05-20T12:43:00;95377.50;;;20.33;46.96
52957;BME280;38819;42.692;23.342;2023-05-20T12:45:26;95375.56;;;20.34;45.52
52957;BME280;38819;42.692;23.342;2023-05-20T12:47:51;95387.31;;;20.34;45.02
52957;BME280;38819;42.692;23.342;2023-05-20T12:50:17;95390.06;;;20.34;44.99
52957;BME280;38819;42.692;23.342;2023-05-20T12:52:42;95383.34;;;20.32;44.11
52957;BME280;38819;42.692;23.342;2023-05-20T12:55:08;95383.38;;;20.20;44.16
52957;BME280;38819;42.692;23.342;2023-05-20T12:57:42;95376.94;;;20.12;44.63
52957;BME280;38819;42.692;23.342;2023-05-20T13:00:08;95368.75;;;19.99;45.63